createdAt,value
2019-03-11T00:02:23.663Z,5.10
2019-03-11T00:04:53.945Z,5.00
2019-03-11T00:07:24.326Z,5.00
2019-03-11T00:09:57.120Z,4.60
2019-03-11T00:12:27.380Z,4.50
2019-03-11T00:14:57.976Z,4.30
2019-03-11T00:17:28.278Z,4.30
2019-03-11T00:19:58.575Z,4.20
2019-03-11T00:22:28.770Z,4.20
2019-03-11T00:24:59.105Z,4.10
2019-03-11T00:27:29.412Z,4.00
2019-03-11T00:29:59.710Z,3.80
2019-03-11T00:32:29.992Z,3.70
2019-03-11T00:35:00.335Z,3.60
2019-03-11T00:37:30.608Z,3.30
2019-03-11T00:40:02.356Z,3.00
2019-03-11T00:42:34.228Z,2.80
2019-03-11T00:45:05.072Z,2.60
2019-03-11T00:47:35.752Z,2.40
2019-03-11T00:50:07.384Z,2.30
2019-03-11T00:52:37.815Z,2.20
2019-03-11T00:55:08.288Z,2.00
2019-03-11T00:57:43.526Z,2.00
2019-03-11T01:00:25.758Z,1.70
2019-03-11T01:02:56.033Z,1.70
2019-03-11T01:05:26.297Z,1.60
2019-03-11T01:07:56.756Z,1.50
2019-03-11T01:10:26.999Z,1.40
2019-03-11T01:12:57.220Z,1.30
2019-03-11T01:15:27.470Z,1.20
2019-03-11T01:17:57.739Z,1.00
2019-03-11T01:20:27.970Z,0.90
2019-03-11T01:22:58.283Z,0.80
2019-03-11T01:25:28.529Z,0.80
2019-03-11T01:27:58.815Z,0.90
2019-03-11T01:30:29.034Z,0.90
2019-03-11T01:32:59.390Z,0.90
2019-03-11T01:35:29.637Z,0.90
2019-03-11T01:37:59.940Z,0.90
2019-03-11T01:40:30.234Z,0.90
2019-03-11T01:43:00.543Z,0.90
2019-03-11T01:45:30.741Z,0.80
2019-03-11T01:48:01.024Z,0.80
2019-03-11T01:50:31.319Z,0.80
2019-03-11T01:53:01.574Z,0.80
2019-03-11T01:55:31.895Z,0.90
2019-03-11T01:58:02.283Z,0.90
2019-03-11T02:00:32.530Z,0.90
2019-03-11T02:03:02.816Z,0.90
2019-03-11T02:05:33.050Z,0.90
2019-03-11T02:08:04.543Z,0.90
2019-03-11T02:10:34.805Z,0.90
2019-03-11T02:13:05.091Z,0.90
2019-03-11T02:15:35.325Z,0.80
2019-03-11T02:18:05.699Z,0.80
2019-03-11T02:20:35.899Z,0.90
2019-03-11T02:23:06.701Z,0.90
2019-03-11T02:25:36.977Z,0.90
2019-03-11T02:28:08.121Z,0.90
2019-03-11T02:30:38.392Z,0.90
2019-03-11T02:33:08.715Z,1.00
2019-03-11T02:35:38.984Z,0.90
2019-03-11T02:38:09.301Z,0.90
2019-03-11T02:40:39.524Z,0.90
2019-03-11T02:43:09.819Z,1.00
2019-03-11T02:45:39.996Z,1.00
2019-03-11T02:48:10.617Z,1.00
2019-03-11T02:50:40.882Z,1.00
2019-03-11T02:53:11.416Z,1.00
2019-03-11T02:55:41.713Z,0.80
2019-03-11T02:58:11.940Z,1.00
2019-03-11T03:00:42.550Z,1.00
2019-03-11T03:03:31.848Z,1.10
2019-03-11T03:06:09.746Z,1.10
2019-03-11T03:08:39.893Z,1.10
2019-03-11T03:11:10.188Z,1.20
2019-03-11T03:13:40.488Z,1.20
2019-03-11T03:16:10.774Z,1.20
2019-03-11T03:18:41.005Z,1.30
2019-03-11T03:21:11.287Z,1.30
2019-03-11T03:23:42.555Z,1.20
2019-03-11T03:26:12.909Z,1.30
2019-03-11T03:28:43.163Z,1.30
2019-03-11T03:31:13.805Z,1.40
2019-03-11T03:33:44.027Z,1.30
2019-03-11T03:36:14.532Z,1.40
2019-03-11T03:38:44.803Z,1.40
2019-03-11T03:41:15.289Z,1.40
2019-03-11T03:43:45.584Z,1.40
2019-03-11T03:46:19.222Z,1.40
2019-03-11T03:48:48.190Z,1.50
2019-03-11T03:51:18.780Z,1.50
2019-03-11T03:53:49.477Z,1.60
2019-03-11T03:56:19.854Z,1.60
2019-03-11T03:58:50.124Z,1.60
2019-03-11T04:01:20.408Z,1.60
2019-03-11T04:03:50.636Z,1.60
2019-03-11T04:06:20.915Z,1.70
2019-03-11T04:08:52.311Z,1.70
2019-03-11T04:11:22.643Z,1.70
2019-03-11T04:13:52.891Z,1.70
2019-03-11T04:16:23.187Z,1.60
2019-03-11T04:18:55.296Z,1.70
2019-03-11T04:21:25.880Z,1.70
2019-03-11T04:23:56.100Z,1.70
2019-03-11T04:26:30.999Z,1.80
2019-03-11T04:29:02.639Z,1.80
2019-03-11T04:31:32.881Z,1.80
2019-03-11T04:34:03.158Z,1.80
2019-03-11T04:36:33.462Z,1.80
2019-03-11T04:39:05.240Z,1.80
2019-03-11T04:41:35.900Z,1.80
2019-03-11T04:44:06.900Z,1.70
2019-03-11T04:46:37.646Z,1.70
2019-03-11T04:49:07.902Z,1.80
2019-03-11T04:51:38.398Z,1.70
2019-03-11T04:54:08.997Z,1.70
2019-03-11T04:56:39.770Z,1.70
2019-03-11T04:59:11.806Z,1.80
2019-03-11T05:01:42.099Z,1.70
2019-03-11T05:04:12.558Z,1.80
2019-03-11T05:06:42.906Z,1.80
2019-03-11T05:09:13.173Z,1.90
2019-03-11T05:11:43.662Z,1.80
2019-03-11T05:14:14.036Z,1.80
2019-03-11T05:16:44.331Z,1.90
2019-03-11T05:19:14.566Z,1.90
2019-03-11T05:21:44.858Z,1.90
2019-03-11T05:24:15.134Z,1.90
2019-03-11T05:26:45.433Z,1.90
2019-03-11T05:29:15.708Z,2.00
2019-03-11T05:31:45.979Z,1.90
2019-03-11T05:34:18.370Z,1.90
2019-03-11T05:36:48.142Z,1.90
2019-03-11T05:39:18.555Z,1.90
2019-03-11T05:41:48.856Z,1.90
2019-03-11T05:44:19.099Z,1.90
2019-03-11T05:46:49.480Z,2.00
2019-03-11T05:49:19.704Z,2.00
2019-03-11T05:51:51.646Z,2.00
2019-03-11T05:54:21.853Z,2.10
2019-03-11T05:56:52.159Z,1.50
2019-03-11T05:59:22.480Z,2.10
2019-03-11T06:01:52.811Z,2.10
2019-03-11T06:04:23.111Z,2.10
2019-03-11T06:06:53.456Z,2.10
2019-03-11T06:09:23.791Z,2.10
2019-03-11T06:11:54.081Z,2.20
2019-03-11T06:14:24.368Z,2.30
2019-03-11T06:16:54.660Z,2.40
2019-03-11T06:19:24.935Z,2.30
2019-03-11T06:22:00.653Z,2.40
2019-03-11T06:24:32.530Z,2.50
2019-03-11T06:27:02.785Z,2.60
2019-03-11T06:29:33.190Z,2.70
2019-03-11T06:32:03.535Z,2.70
2019-03-11T06:34:33.921Z,2.60
2019-03-11T06:37:04.223Z,2.60
2019-03-11T06:39:34.466Z,2.60
2019-03-11T06:42:05.064Z,2.70
2019-03-11T06:44:35.319Z,2.70
2019-03-11T06:47:05.579Z,2.70
2019-03-11T06:49:36.354Z,2.80
2019-03-11T06:52:06.645Z,2.80
2019-03-11T06:54:36.901Z,2.70
2019-03-11T06:57:07.318Z,2.60
2019-03-11T06:59:37.924Z,2.70
2019-03-11T07:02:08.395Z,2.80
2019-03-11T07:04:38.859Z,2.80
2019-03-11T07:07:09.209Z,2.80
2019-03-11T07:09:39.581Z,2.90
2019-03-11T07:12:09.918Z,2.90
2019-03-11T07:14:40.163Z,3.20
2019-03-11T07:17:10.627Z,3.70
2019-03-11T07:19:40.858Z,3.60
2019-03-11T07:22:11.377Z,3.50
2019-03-11T07:24:41.534Z,3.90
2019-03-11T07:27:12.024Z,4.40
2019-03-11T07:29:42.351Z,4.20
2019-03-11T07:32:12.675Z,4.50
2019-03-11T07:34:43.133Z,3.60
2019-03-11T07:37:13.463Z,3.10
2019-03-11T07:39:48.841Z,3.20
2019-03-11T07:42:19.109Z,3.10
2019-03-11T07:44:49.343Z,2.90
2019-03-11T07:47:22.798Z,2.80
2019-03-11T07:49:53.120Z,2.70
2019-03-11T07:52:23.567Z,2.90
2019-03-11T07:54:53.790Z,3.10
2019-03-11T07:57:24.015Z,3.00
2019-03-11T08:00:00.426Z,3.00
2019-03-11T08:02:30.746Z,3.00
2019-03-11T08:05:01.013Z,3.10
2019-03-11T08:07:33.808Z,3.20
2019-03-11T08:10:04.731Z,3.30
2019-03-11T08:12:35.179Z,3.00
2019-03-11T08:15:06.307Z,3.00
2019-03-11T08:17:36.926Z,2.90
2019-03-11T08:20:08.324Z,2.90
2019-03-11T08:22:38.839Z,3.00
2019-03-11T08:25:09.152Z,3.10
2019-03-11T08:27:39.535Z,3.10
2019-03-11T08:30:11.948Z,3.20
2019-03-11T08:32:42.204Z,3.00
2019-03-11T08:35:12.696Z,2.80
2019-03-11T08:37:43.060Z,2.80
2019-03-11T08:40:14.325Z,2.90
2019-03-11T08:42:44.787Z,3.00
2019-03-11T08:45:15.638Z,3.10
2019-03-11T08:47:46.018Z,3.20
2019-03-11T08:50:16.498Z,3.40
2019-03-11T08:52:46.751Z,3.60
2019-03-11T08:55:17.358Z,3.40
2019-03-11T08:57:47.628Z,3.50
2019-03-11T09:00:19.344Z,3.90
2019-03-11T09:02:49.571Z,4.40
2019-03-11T09:05:20.010Z,4.00
2019-03-11T09:07:50.370Z,3.90
2019-03-11T09:10:21.270Z,4.40
2019-03-11T09:12:51.690Z,4.30
2019-03-11T09:15:22.550Z,4.80
2019-03-11T09:17:52.940Z,5.00
2019-03-11T09:20:23.465Z,5.00
2019-03-11T09:22:53.749Z,4.80
2019-03-11T09:25:24.154Z,4.40
2019-03-11T09:27:54.454Z,4.30
2019-03-11T09:30:24.964Z,4.50
2019-03-11T09:32:55.342Z,4.80
2019-03-11T09:35:25.629Z,4.70
2019-03-11T09:37:55.898Z,4.60
2019-03-11T09:40:26.209Z,4.80
2019-03-11T09:42:56.669Z,5.00
2019-03-11T09:45:26.910Z,4.80
2019-03-11T09:47:57.418Z,4.60
2019-03-11T09:50:27.797Z,4.50
2019-03-11T09:52:58.480Z,4.60
2019-03-11T09:55:28.769Z,4.70
2019-03-11T09:57:59.124Z,4.80
2019-03-11T10:00:29.498Z,4.50
2019-03-11T10:02:59.777Z,4.50
2019-03-11T10:05:30.657Z,4.90
2019-03-11T10:08:01.055Z,5.00
2019-03-11T10:10:31.392Z,4.80
2019-03-11T10:13:02.133Z,5.20
2019-03-11T10:15:32.424Z,5.10
2019-03-11T10:18:02.672Z,4.90
2019-03-11T10:20:34.304Z,4.80
2019-03-11T10:23:04.767Z,4.60
2019-03-11T10:25:35.129Z,4.70
2019-03-11T10:28:05.902Z,4.90
2019-03-11T10:30:36.513Z,4.70
2019-03-11T10:33:06.885Z,4.70
2019-03-11T10:35:37.201Z,4.60
2019-03-11T10:38:07.487Z,4.60
2019-03-11T10:40:37.914Z,4.70
2019-03-11T10:43:08.177Z,4.80
2019-03-11T10:45:38.439Z,5.00
2019-03-11T10:48:08.743Z,5.10
2019-03-11T10:50:39.091Z,5.10
2019-03-11T10:53:09.751Z,5.00
2019-03-11T10:55:40.001Z,5.30
2019-03-11T10:58:10.701Z,5.50
2019-03-11T11:00:41.651Z,5.40
2019-03-11T11:03:12.375Z,5.40
2019-03-11T11:05:42.777Z,5.40
2019-03-11T11:08:13.153Z,5.10
2019-03-11T11:10:43.690Z,5.30
2019-03-11T11:13:14.209Z,5.60
2019-03-11T11:15:45.761Z,5.50
2019-03-11T11:18:16.159Z,5.40
2019-03-11T11:20:46.466Z,5.30
2019-03-11T11:23:17.209Z,5.30
2019-03-11T11:25:47.644Z,5.40
2019-03-11T11:28:18.285Z,5.30
2019-03-11T11:30:48.628Z,5.40
2019-03-11T11:33:18.967Z,5.70
2019-03-11T11:35:49.429Z,5.90
2019-03-11T11:38:19.690Z,5.70
2019-03-11T11:40:49.831Z,5.50
2019-03-11T11:43:20.080Z,5.40
2019-03-11T11:45:50.416Z,5.30
2019-03-11T11:48:20.657Z,5.60
2019-03-11T11:50:51.183Z,5.80
2019-03-11T11:53:21.625Z,5.80
2019-03-11T11:55:57.610Z,5.80
2019-03-11T11:58:24.086Z,6.00
2019-03-11T12:00:54.552Z,6.20
2019-03-11T12:03:24.981Z,6.30
2019-03-11T12:05:55.872Z,5.80
2019-03-11T12:08:26.343Z,5.90
2019-03-11T12:10:56.782Z,6.40
2019-03-11T12:13:27.153Z,6.30
2019-03-11T12:15:57.552Z,6.50
2019-03-11T12:18:28.116Z,6.60
2019-03-11T12:20:58.388Z,6.70
2019-03-11T12:23:28.638Z,6.70
2019-03-11T12:25:58.996Z,6.90
2019-03-11T12:28:29.228Z,7.10
2019-03-11T12:30:59.522Z,6.90
2019-03-11T12:33:30.069Z,7.00
2019-03-11T12:36:00.728Z,6.50
2019-03-11T12:38:31.085Z,6.40
2019-03-11T12:41:02.398Z,6.90
2019-03-11T12:43:32.654Z,7.10
2019-03-11T12:46:03.127Z,6.60
2019-03-11T12:48:33.391Z,6.90
2019-03-11T12:51:03.904Z,7.50
2019-03-11T12:53:34.160Z,7.00
2019-03-11T12:56:04.528Z,6.80
2019-03-11T12:58:41.415Z,7.10
2019-03-11T13:01:06.668Z,7.00
2019-03-11T13:03:36.951Z,7.30
2019-03-11T13:06:08.061Z,7.20
2019-03-11T13:08:38.370Z,7.20
2019-03-11T13:11:08.657Z,7.30
2019-03-11T13:13:39.081Z,7.10
2019-03-11T13:16:09.324Z,7.20
2019-03-11T13:18:44.326Z,7.10
2019-03-11T13:21:20.667Z,7.10
2019-03-11T13:23:51.260Z,7.20
2019-03-11T13:26:21.557Z,7.10
2019-03-11T13:28:52.034Z,7.00
2019-03-11T13:31:22.419Z,6.90
2019-03-11T13:33:53.031Z,7.50
2019-03-11T13:36:23.496Z,7.30
2019-03-11T13:38:53.781Z,6.90
2019-03-11T13:41:24.061Z,7.00
2019-03-11T13:43:54.295Z,7.10
2019-03-11T13:46:24.592Z,7.00
2019-03-11T13:48:54.873Z,7.00
2019-03-11T13:51:25.328Z,6.90
2019-03-11T13:53:55.617Z,6.70
2019-03-11T13:56:25.923Z,6.70
2019-03-11T13:58:57.399Z,6.60
2019-03-11T14:01:27.719Z,6.40
2019-03-11T14:03:57.970Z,6.70
2019-03-11T14:06:28.695Z,7.00
2019-03-11T14:08:58.983Z,7.20
2019-03-11T14:11:29.199Z,7.40
2019-03-11T14:13:59.741Z,7.60
2019-03-11T14:16:30.010Z,7.40
2019-03-11T14:19:00.301Z,7.30
2019-03-11T14:21:31.848Z,7.00
2019-03-11T14:24:02.153Z,7.10
2019-03-11T14:26:32.448Z,7.30
2019-03-11T14:29:03.189Z,7.30
2019-03-11T14:31:33.457Z,7.10
2019-03-11T14:34:06.967Z,6.80
2019-03-11T14:36:37.236Z,6.70
2019-03-11T14:39:08.051Z,6.70
2019-03-11T14:41:38.544Z,6.70
2019-03-11T14:44:09.008Z,6.60
2019-03-11T14:46:39.283Z,6.70
2019-03-11T14:49:09.489Z,6.40
2019-03-11T14:51:40.175Z,6.40
2019-03-11T14:54:10.441Z,6.50
2019-03-11T14:56:41.117Z,6.40
2019-03-11T14:59:11.344Z,6.40
2019-03-11T15:01:41.867Z,6.40
2019-03-11T15:04:12.054Z,6.40
2019-03-11T15:06:42.482Z,6.20
2019-03-11T15:09:13.165Z,6.20
2019-03-11T15:11:43.519Z,6.30
2019-03-11T15:14:13.882Z,6.20
2019-03-11T15:16:46.135Z,6.00
2019-03-11T15:19:16.402Z,5.90
2019-03-11T15:21:48.255Z,6.10
2019-03-11T15:24:18.494Z,6.00
2019-03-11T15:26:49.001Z,5.90
2019-03-11T15:29:19.335Z,6.00
2019-03-11T15:31:50.175Z,6.00
2019-03-11T15:34:20.482Z,5.90
2019-03-11T15:36:50.862Z,5.80
2019-03-11T15:39:21.171Z,5.80
2019-03-11T15:41:51.450Z,5.80
2019-03-11T15:44:22.372Z,5.80
2019-03-11T15:46:56.280Z,5.80
2019-03-11T15:49:26.103Z,5.90
2019-03-11T15:51:56.537Z,5.80
2019-03-11T15:54:26.861Z,5.70
2019-03-11T15:56:57.196Z,5.70
2019-03-11T15:59:27.490Z,5.70
2019-03-11T16:01:57.859Z,5.70
2019-03-11T16:04:28.174Z,5.60
2019-03-11T16:06:58.746Z,5.60
2019-03-11T16:09:29.035Z,5.50
2019-03-11T16:11:59.720Z,5.60
2019-03-11T16:14:30.184Z,5.50
2019-03-11T16:17:00.664Z,5.60
2019-03-11T16:19:31.612Z,5.60
2019-03-11T16:22:01.944Z,5.70
2019-03-11T16:24:32.428Z,5.50
2019-03-11T16:27:02.702Z,5.50
2019-03-11T16:29:33.142Z,5.40
2019-03-11T16:32:03.450Z,5.40
2019-03-11T16:34:33.978Z,5.30
2019-03-11T16:37:06.623Z,5.20
2019-03-11T16:39:36.202Z,5.20
2019-03-11T16:42:06.887Z,5.10
2019-03-11T16:44:37.420Z,5.20
2019-03-11T16:47:07.768Z,4.90
2019-03-11T16:49:38.134Z,4.90
2019-03-11T16:52:08.414Z,4.80
2019-03-11T16:54:38.716Z,4.80
2019-03-11T16:57:09.576Z,4.80
2019-03-11T16:59:39.877Z,4.70
2019-03-11T17:02:10.661Z,4.70
2019-03-11T17:04:40.988Z,4.70
2019-03-11T17:07:11.684Z,4.70
2019-03-11T17:09:42.044Z,4.70
2019-03-11T17:12:12.504Z,4.80
2019-03-11T17:14:42.986Z,4.70
2019-03-11T17:17:13.350Z,4.70
2019-03-11T17:19:43.910Z,4.70
2019-03-11T17:22:14.613Z,4.70
2019-03-11T17:24:44.898Z,4.70
2019-03-11T17:27:15.334Z,4.60
2019-03-11T17:29:45.685Z,4.60
2019-03-11T17:32:16.461Z,4.60
2019-03-11T17:34:46.753Z,4.60
2019-03-11T17:37:17.308Z,4.70
2019-03-11T17:39:47.707Z,4.60
2019-03-11T17:42:17.966Z,4.60
2019-03-11T17:44:50.847Z,4.60
2019-03-11T17:47:21.140Z,4.50
2019-03-11T17:49:52.023Z,4.40
2019-03-11T17:52:22.436Z,4.40
2019-03-11T17:54:52.730Z,4.40
2019-03-11T17:57:23.519Z,4.30
2019-03-11T17:59:53.887Z,4.40
2019-03-11T18:02:24.263Z,4.30
2019-03-11T18:04:54.717Z,4.30
2019-03-11T18:07:26.369Z,4.40
2019-03-11T18:09:56.756Z,4.30
2019-03-11T18:12:27.179Z,4.30
2019-03-11T18:14:57.721Z,4.40
2019-03-11T18:17:27.979Z,4.40
2019-03-11T18:19:58.604Z,4.40
2019-03-11T18:22:28.904Z,4.30
2019-03-11T18:24:59.686Z,4.30
2019-03-11T18:27:29.984Z,4.30
2019-03-11T18:30:00.478Z,4.20
2019-03-11T18:32:31.122Z,4.30
2019-03-11T18:35:01.427Z,4.30
2019-03-11T18:37:31.847Z,4.40
2019-03-11T18:40:02.541Z,4.40
2019-03-11T18:42:33.374Z,4.40
2019-03-11T18:45:03.778Z,4.30
2019-03-11T18:47:34.402Z,4.30
2019-03-11T18:50:09.085Z,4.20
2019-03-11T18:52:39.387Z,4.20
2019-03-11T18:55:10.295Z,4.10
2019-03-11T18:57:40.643Z,4.00
2019-03-11T19:00:12.259Z,4.00
2019-03-11T19:02:42.625Z,4.00
2019-03-11T19:05:13.668Z,4.00
2019-03-11T19:07:44.219Z,4.00
2019-03-11T19:10:16.039Z,4.00
2019-03-11T19:12:46.571Z,3.90
2019-03-11T19:15:17.796Z,3.90
2019-03-11T19:17:48.192Z,3.90
2019-03-11T19:20:19.137Z,3.90
2019-03-11T19:22:49.417Z,3.80
2019-03-11T19:25:20.061Z,3.80
2019-03-11T19:27:50.380Z,3.90
2019-03-11T19:30:21.062Z,4.00
2019-03-11T19:32:51.488Z,3.90
2019-03-11T19:35:22.174Z,3.70
2019-03-11T19:37:52.557Z,3.70
2019-03-11T19:40:22.935Z,3.70
2019-03-11T19:42:53.295Z,3.60
2019-03-11T19:45:24.522Z,3.60
2019-03-11T19:47:55.094Z,3.60
2019-03-11T19:50:25.743Z,3.50
2019-03-11T19:52:58.871Z,3.50
2019-03-11T19:55:28.834Z,3.40
2019-03-11T19:57:59.252Z,3.30
2019-03-11T20:00:29.645Z,3.30
2019-03-11T20:03:00.305Z,3.20
2019-03-11T20:05:30.653Z,3.20
2019-03-11T20:08:01.073Z,3.20
2019-03-11T20:10:31.690Z,3.20
2019-03-11T20:13:01.949Z,3.30
2019-03-11T20:15:32.646Z,3.30
2019-03-11T20:18:03.022Z,3.40
2019-03-11T20:20:33.480Z,3.50
2019-03-11T20:23:04.012Z,3.40
2019-03-11T20:25:34.595Z,3.50
2019-03-11T20:28:05.070Z,3.50
2019-03-11T20:30:35.746Z,3.50
2019-03-11T20:33:06.803Z,3.50
2019-03-11T20:35:37.613Z,3.50
2019-03-11T20:38:08.727Z,3.50
2019-03-11T20:40:39.006Z,3.50
2019-03-11T20:43:09.508Z,3.40
2019-03-11T20:45:39.865Z,3.40
2019-03-11T20:48:10.630Z,3.40
2019-03-11T20:50:42.354Z,3.40
2019-03-11T20:53:14.814Z,3.40
2019-03-11T20:55:45.395Z,3.40
2019-03-11T20:58:16.085Z,3.30
2019-03-11T21:00:46.635Z,3.30
2019-03-11T21:03:17.110Z,3.30
2019-03-11T21:05:47.517Z,3.30
2019-03-11T21:08:18.020Z,3.30
2019-03-11T21:10:48.329Z,3.30
2019-03-11T21:13:18.826Z,3.30
2019-03-11T21:15:49.170Z,3.30
2019-03-11T21:18:19.956Z,3.30
2019-03-11T21:20:50.318Z,3.20
2019-03-11T21:23:20.751Z,3.20
2019-03-11T21:25:51.224Z,3.30
2019-03-11T21:28:23.048Z,3.20
2019-03-11T21:30:53.467Z,3.20
2019-03-11T21:33:24.071Z,3.30
2019-03-11T21:35:55.809Z,3.30
2019-03-11T21:38:27.645Z,3.40
2019-03-11T21:40:57.990Z,3.40
2019-03-11T21:43:28.619Z,3.50
2019-03-11T21:45:59.120Z,3.50
2019-03-11T21:48:29.699Z,3.30
2019-03-11T21:51:00.020Z,3.40
2019-03-11T21:53:30.348Z,3.40
2019-03-11T21:56:00.617Z,3.50
2019-03-11T21:58:31.078Z,3.50
2019-03-11T22:01:01.406Z,3.50
2019-03-11T22:03:31.872Z,3.50
2019-03-11T22:06:02.151Z,3.50
2019-03-11T22:08:33.734Z,3.60
2019-03-11T22:11:04.029Z,3.50
2019-03-11T22:13:34.327Z,3.50
2019-03-11T22:16:04.576Z,3.50
2019-03-11T22:18:34.878Z,3.50
2019-03-11T22:21:05.109Z,3.60
2019-03-11T22:23:35.480Z,3.60
2019-03-11T22:26:05.771Z,3.60
2019-03-11T22:28:36.228Z,3.50
2019-03-11T22:31:06.519Z,3.70
2019-03-11T22:33:36.759Z,3.60
2019-03-11T22:36:07.978Z,3.60
2019-03-11T22:38:38.490Z,3.60
2019-03-11T22:41:08.988Z,3.60
2019-03-11T22:43:39.237Z,3.60
2019-03-11T22:46:09.730Z,3.60
2019-03-11T22:48:41.138Z,3.60
2019-03-11T22:51:11.714Z,3.60
2019-03-11T22:53:41.968Z,3.70
2019-03-11T22:56:12.457Z,3.70
2019-03-11T22:58:42.822Z,3.70
2019-03-11T23:01:14.111Z,3.60
2019-03-11T23:03:50.119Z,3.60
2019-03-11T23:06:18.258Z,3.60
2019-03-11T23:08:49.048Z,3.50
2019-03-11T23:11:21.338Z,3.50
2019-03-11T23:13:55.388Z,3.40
2019-03-11T23:16:25.658Z,3.50
2019-03-11T23:18:56.134Z,3.50
2019-03-11T23:21:26.433Z,3.50
2019-03-11T23:23:56.688Z,3.60
2019-03-11T23:26:27.094Z,3.50
2019-03-11T23:28:57.573Z,3.50
2019-03-11T23:31:28.206Z,3.50
2019-03-11T23:33:58.467Z,3.40
2019-03-11T23:36:28.766Z,3.40
2019-03-11T23:38:59.056Z,3.50
2019-03-11T23:41:29.453Z,3.50
2019-03-11T23:43:59.740Z,3.50
2019-03-11T23:46:30.324Z,3.40
2019-03-11T23:49:00.609Z,3.40
2019-03-11T23:51:30.902Z,3.40
2019-03-11T23:54:01.166Z,3.50
2019-03-11T23:56:31.620Z,3.50
2019-03-11T23:59:02.020Z,3.60
